createdAt,value
2022-11-27T00:01:54.120Z,200.00
2022-11-27T00:11:59.017Z,193.87
2022-11-27T00:22:02.495Z,193.87
2022-11-27T00:32:08.261Z,189.07
2022-11-27T00:42:11.669Z,196.67
2022-11-27T00:52:16.552Z,196.37
2022-11-27T01:02:20.106Z,196.50
2022-11-27T01:12:24.992Z,193.87
2022-11-27T01:22:28.418Z,193.73
2022-11-27T01:32:33.250Z,196.63
2022-11-27T01:42:36.854Z,194.87
2022-11-27T01:52:49.819Z,195.43
2022-11-27T02:02:53.688Z,192.63
2022-11-27T02:13:07.096Z,194.37
2022-11-27T02:23:37.987Z,186.87
2022-11-27T02:33:48.913Z,192.60
2022-11-27T02:43:53.694Z,200.30
2022-11-27T02:54:03.430Z,200.87
2022-11-27T03:04:13.748Z,192.40
2022-11-27T03:14:20.356Z,196.43
2022-11-27T03:24:24.132Z,197.50
2022-11-27T03:34:29.404Z,200.80
2022-11-27T03:44:42.519Z,206.37
2022-11-27T03:55:02.205Z,210.43
2022-11-27T04:05:06.249Z,209.10
2022-11-27T04:15:12.857Z,212.77
2022-11-27T04:25:16.379Z,214.23
2022-11-27T04:35:21.213Z,206.00
2022-11-27T04:45:24.724Z,198.90
2022-11-27T04:55:30.497Z,203.53
2022-11-27T05:05:34.060Z,197.43
2022-11-27T05:15:38.884Z,199.83
2022-11-27T05:25:42.536Z,200.43
2022-11-27T05:35:47.458Z,201.90
2022-11-27T05:45:51.425Z,205.37
2022-11-27T05:55:56.398Z,190.60
2022-11-27T06:06:00.008Z,198.30
2022-11-27T06:16:09.136Z,196.40
2022-11-27T06:26:15.737Z,202.87
2022-11-27T06:36:21.864Z,201.13
2022-11-27T06:46:26.450Z,188.20
2022-11-27T06:56:33.280Z,200.80
2022-11-27T07:06:36.711Z,194.40
2022-11-27T07:16:41.611Z,192.83
2022-11-27T07:26:45.073Z,194.33
2022-11-27T07:36:49.888Z,196.57
2022-11-27T07:46:53.310Z,194.63
2022-11-27T07:56:58.147Z,190.07
2022-11-27T08:07:01.609Z,188.73
2022-11-27T08:17:06.464Z,187.03
2022-11-27T08:27:10.033Z,183.40
2022-11-27T08:37:14.909Z,197.20
2022-11-27T08:47:19.332Z,199.00
2022-11-27T08:57:24.675Z,201.60
2022-11-27T09:07:28.430Z,187.87
2022-11-27T09:17:33.606Z,196.37
2022-11-27T09:27:38.523Z,187.17
2022-11-27T09:37:43.303Z,189.10
2022-11-27T09:47:51.397Z,191.73
2022-11-27T09:58:02.194Z,188.13
2022-11-27T10:08:22.630Z,195.67
2022-11-27T10:18:35.683Z,188.77
2022-11-27T10:28:43.383Z,187.97
2022-11-27T10:38:50.183Z,190.87
2022-11-27T10:48:53.867Z,192.67
2022-11-27T10:59:01.249Z,186.73
2022-11-27T11:09:08.742Z,181.53
2022-11-27T11:19:26.380Z,187.63
2022-11-27T11:29:37.571Z,186.67
2022-11-27T11:39:49.185Z,187.10
2022-11-27T11:49:54.448Z,191.90
2022-11-27T12:00:07.270Z,190.53
2022-11-27T12:10:19.389Z,199.77
2022-11-27T12:20:41.036Z,196.40
2022-11-27T12:30:54.636Z,192.40
2022-11-27T12:41:34.553Z,195.80
2022-11-27T12:51:47.759Z,199.60
2022-11-27T13:02:03.020Z,201.50
2022-11-27T13:12:07.288Z,207.23
2022-11-27T13:22:15.724Z,198.20
2022-11-27T13:32:23.926Z,190.30
2022-11-27T13:42:29.407Z,191.67
2022-11-27T13:52:33.468Z,189.60
2022-11-27T14:02:47.754Z,190.73
2022-11-27T14:12:56.372Z,189.67
2022-11-27T14:23:17.264Z,196.10
2022-11-27T14:33:23.913Z,200.37
2022-11-27T14:43:28.722Z,194.33
2022-11-27T14:53:32.729Z,194.40
2022-11-27T15:03:37.779Z,192.27
2022-11-27T15:13:42.080Z,202.17
2022-11-27T15:23:49.706Z,208.77
2022-11-27T15:33:58.843Z,188.30
2022-11-27T15:44:04.007Z,194.53
2022-11-27T15:54:07.562Z,197.17
2022-11-27T16:04:12.346Z,194.40
2022-11-27T16:14:17.396Z,194.47
2022-11-27T16:24:22.261Z,192.40
2022-11-27T16:34:25.753Z,199.20
2022-11-27T16:44:31.084Z,198.30
2022-11-27T16:54:34.582Z,210.17
2022-11-27T17:04:42.979Z,206.03
2022-11-27T17:14:47.225Z,198.23
2022-11-27T17:24:55.223Z,198.53
2022-11-27T17:34:58.688Z,201.67
2022-11-27T17:45:03.578Z,199.80
2022-11-27T17:55:08.360Z,201.30
2022-11-27T18:05:13.606Z,200.57
2022-11-27T18:15:17.396Z,199.83
2022-11-27T18:25:23.043Z,205.33
2022-11-27T18:35:26.530Z,210.50
2022-11-27T18:45:33.214Z,209.70
2022-11-27T18:55:37.548Z,221.83
2022-11-27T19:05:42.472Z,210.93
2022-11-27T19:15:47.264Z,222.60
2022-11-27T19:25:53.215Z,217.93
2022-11-27T19:36:01.405Z,214.83
2022-11-27T19:46:16.030Z,219.00
2022-11-27T19:56:19.711Z,219.77
2022-11-27T20:06:27.228Z,229.13
2022-11-27T20:16:30.849Z,230.20
2022-11-27T20:26:41.144Z,219.90
2022-11-27T20:36:46.244Z,220.33
2022-11-27T20:46:52.484Z,226.80
2022-11-27T20:56:55.959Z,212.10
2022-11-27T21:07:01.088Z,227.23
2022-11-27T21:17:05.948Z,217.87
2022-11-27T21:27:12.940Z,229.77
2022-11-27T21:37:17.164Z,222.63
2022-11-27T21:47:22.090Z,230.53
2022-11-27T21:57:25.652Z,231.83
2022-11-27T22:07:30.600Z,229.30
2022-11-27T22:17:34.864Z,225.30
2022-11-27T22:27:40.128Z,219.53
2022-11-27T22:37:43.709Z,220.13
2022-11-27T22:47:48.555Z,222.60
2022-11-27T22:57:52.004Z,226.57
2022-11-27T23:07:56.893Z,223.00
2022-11-27T23:18:00.640Z,239.80
2022-11-27T23:28:06.163Z,231.97
2022-11-27T23:38:09.593Z,222.87
2022-11-27T23:48:14.446Z,216.47
2022-11-27T23:58:17.998Z,221.67
